KHUM

Houma-Terrebonne Airport

Houma, Louisiana, USA
METAR KHUM 211450Z 07007KT 7SM CLR 06/03 A3038
Observed Flight Rules
Jan-21 @ 14:50 UTC (an hour ago) Visual Flight Rules
Wind Visibility Clouds
70° at 7 knots 7 miles
  • Clear skies
Temperatures Readings
Current 6°C / 43°F
Dewpoint 3°C / 37°F
Humidity 81%
Altimeter 30.38" Hg
Pressure 1028.81 hPa
Elevation 3
METAR KHUM 211450Z 07007KT 7SM CLR 06/03 A3038
Observed Flight Rules
Jan-21 @ 14:50 UTC
(an hour ago)
VFR
Wind Visibility
70° at 7 knots 7 miles
Clouds
  • Clear skies
Temperature Dewpoint
6°C / 43°F 3°C / 37°F
Humidity Altimeter Pressure
81% 30.38" Hg 1028.81 hPa